Flight Track Log - Related Links

Times and Time Zones

All times are in EDT time to prevent confusion due to time zone crossing. See the AWE1940 flight status page for this flight to view local times or setup timezone preferences in your user account.

Time Position Orientation Groundspeed Altitude Reporting Facility
EDT Latitude Longitude Course Direction KTS MPH feet Rate Location/Type
Tue 01:01:55 AM 35.1431 -80.9425 34° Northeast 234 269 5,500  Level Atlanta Center
Tue 01:02:55 AM 35.1764 -80.8600 64° Northeast 217 250 7,800 2,450 Climbing Atlanta Center
Tue 01:03:55 AM 35.2244 -80.7819 53° Northeast 237 273 10,400 1,800 Climbing Atlanta Center
Tue 01:04:55 AM 35.2864 -80.6853 52° Northeast 302 348 11,400 1,550 Climbing Atlanta Center
Tue 01:05:55 AM 35.3544 -80.5781 52° Northeast 364 419 13,500 2,070 Climbing Atlanta Center
Tue 01:06:00 AM 35.6820 -80.5567 34° Northeast  Level Estimated
Tue 01:07:00 AM 35.7599 -80.4909 34° Northeast  Level Estimated
Tue 01:08:15 AM 35.5203 -80.3158 52° Northeast 428 493 18,300  Level Washington Center
Tue 01:09:15 AM 35.5958 -80.1950 52° Northeast 428 493 19,900 1,587 Climbing Washington Center
Tue 01:10:16 AM 35.6694 -80.0739 53° Northeast 434 499 21,500 1,377 Climbing Washington Center
Tue 01:11:17 AM 35.7403 -79.9653 51° Northeast 439 505 22,700 1,160 Climbing Washington Center
Tue 01:12:15 AM 35.8219 -79.8392 51° Northeast 452 520 23,800 1,169 Climbing Washington Center
Tue 01:13:15 AM 35.9106 -79.6953 53° Northeast 477 549 25,000 1,050 Climbing Washington Center
Tue 01:14:15 AM 35.9922 -79.5633 53° Northeast 486 559 25,900 950 Climbing Washington Center
Tue 01:15:15 AM 36.0650 -79.4411 54° Northeast 486 559 26,900 1,131 Climbing Washington Center
Tue 01:16:17 AM 36.1572 -79.2992 51° Northeast 486 559 28,200 1,289 Climbing Washington Center
Tue 01:17:16 AM 36.2361 -79.1664 54° Northeast 486 559 29,500 1,373 Climbing Washington Center
Tue 01:18:15 AM 36.3172 -79.0361 52° Northeast 486 559 30,900 1,261 Climbing Washington Center
Tue 01:19:15 AM 36.3961 -78.9053 53° Northeast 476 548 32,000 1,350 Climbing Washington Center
Tue 01:20:15 AM 36.4769 -78.7744 52° Northeast 476 548 33,600 1,388 Climbing Washington Center
Tue 01:21:16 AM 36.5533 -78.6456 54° Northeast 471 542 34,800 1,100 Climbing Washington Center
Tue 01:22:15 AM 36.6294 -78.5167 54° Northeast 471 542 35,800 1,008 Climbing Washington Center
Tue 01:23:15 AM 36.7036 -78.3847 55° Northeast 471 542 36,800 595 Climbing Washington Center
Tue 01:24:16 AM 36.7836 -78.2553 52° Northeast 466 536 37,000 100 Climbing Washington Center
Tue 01:25:15 AM 36.8639 -78.1206 53° Northeast 471 542 37,000  Level Washington Center
Tue 01:26:18 AM 36.9439 -77.9828 54° Northeast 476 548 37,000  Level Washington Center
Tue 01:27:15 AM 37.0217 -77.8472 54° Northeast 476 548 37,000  Level Washington Center
Tue 01:28:15 AM 37.1011 -77.7142 53° Northeast 476 548 37,000  Level Washington Center
Tue 01:29:17 AM 37.1764 -77.5858 54° Northeast 469 540 37,000  Level Washington Center
Tue 01:30:15 AM 37.2386 -77.4781 54° Northeast 469 540 37,000  Level Washington Center
Tue 01:31:17 AM 37.3319 -77.3681 43° Northeast 469 540 37,000  Level Washington Center
Tue 01:32:15 AM 37.4567 -77.2531 36° Northeast 456 525 37,000  Level Washington Center
Tue 01:33:15 AM 37.5625 -77.1533 37° Northeast 461 531 37,000  Level Washington Center
Tue 01:34:15 AM 37.6658 -77.0506 38° Northeast 466 536 37,000 -450 Level Washington Center
Tue 01:35:15 AM 37.7672 -76.9500 38° Northeast 466 536 36,100 -927 Descending Washington Center
Tue 01:36:18 AM 37.8725 -76.8492 37° Northeast 466 536 35,100 -550 Descending Washington Center
Tue 01:37:15 AM 37.9736 -76.7481 38° Northeast 466 536 35,000 -51 Descending Washington Center
Tue 01:38:15 AM 38.0789 -76.6469 37° Northeast 466 536 35,000  Level Washington Center
Tue 01:39:15 AM 38.1819 -76.5453 38° Northeast 466 536 35,000  Level Washington Center
Tue 01:40:15 AM 38.2828 -76.4461 38° Northeast 466 536 35,000  Level Washington Center
Tue 01:41:15 AM 38.3750 -76.3572 37° Northeast 461 531 35,000  Level Washington Center
Tue 01:42:16 AM 38.4778 -76.2519 39° Northeast 466 536 35,000  Level Washington Center
Tue 01:43:17 AM 38.5847 -76.1494 37° Northeast 474 545 35,000  Level Washington Center
Tue 01:44:17 AM 38.6872 -76.0464 38° Northeast 469 540 35,000  Level Washington Center
Tue 01:45:16 AM 38.7919 -75.9458 37° Northeast 469 540 35,000  Level Washington Center
Tue 01:46:16 AM 38.8942 -75.8397 39° Northeast 469 540 35,000  Level Washington Center
Tue 01:47:17 AM 38.9967 -75.7386 37° Northeast 469 540 35,000  Level Washington Center
Tue 01:48:17 AM 39.0989 -75.6344 38° Northeast 469 540 35,000  Level Washington Center
Tue 01:49:16 AM 39.2008 -75.5300 38° Northeast 469 540 35,000  Level Washington Center
Tue 01:50:26 AM 39.2842 -75.4467 38° Northeast 469 540 35,000 -28 Level Washington Center
Tue 01:52:52 AM 39.5669 -75.1578 38° Northeast 466 536 34,900  Descending New York Center
Tue 01:53:51 AM 39.6744 -75.0728 31° Northeast 460 529 35,000 49 Climbing New York Center
Tue 01:54:54 AM 39.7911 -75.0206 19° North 449 517 35,000  Level New York Center
Tue 01:55:51 AM 39.9139 -74.9658 19° North 449 517 35,000  Level New York Center
Tue 01:56:52 AM 40.0514 -74.9089 18° North 463 533 35,000  Level New York Center
Tue 01:57:51 AM 40.1697 -74.8589 18° North 463 533 35,000 -151 Level New York Center
Tue 01:58:51 AM 40.2906 -74.8064 18° North 446 513 34,700 -850 Descending New York Center
Tue 01:59:51 AM 40.4089 -74.7561 18° North 446 513 33,300 -1,350 Descending New York Center
Tue 02:00:51 AM 40.5292 -74.7083 10° North 446 513 32,000 -1,300 Descending New York Center
Tue 02:01:00 AM 40.5378 -74.7267 10° North  Level FlightAware Approximate
Tue 02:01:51 AM 40.6436 -74.6519 20° North 446 513 30,700  Level New York Center
Tue 02:02:51 AM 40.7619 -74.6011 18° North 446 513 29,300 -1,366 Descending New York Center
Tue 02:03:54 AM 40.8761 -74.5500 19° North 441 507 27,900 -1,214 Descending New York Center
Tue 02:06:00 AM 41.0786 -74.5171 North  Level FlightAware Approximate
Tue 02:07:13 AM 41.2583 -74.3867 North 439 505 24,000  Level Boston Center
Tue 02:08:13 AM 41.3758 -74.3322 19° North 445 512 24,000 -850 Level Boston Center
Tue 02:09:13 AM 41.4997 -74.2750 19° North 451 519 22,300 -2,600 Descending Boston Center
Tue 02:10:13 AM 41.6214 -74.2228 18° North 451 519 18,800 -3,000 Descending Boston Center
Tue 02:11:13 AM 41.7222 -74.1786 18° North 419 482 16,300 -2,400 Descending Boston Center
Tue 02:11:58 AM 41.8103 -74.1392 18° North 411 473 14,600 -2,000 Descending Boston Center
Tue 02:12:13 AM 41.8397 -74.1231 22° Northeast 406 467 14,300 -1,455 Descending Boston Center
Tue 02:13:04 AM 41.9258 -74.0864 18° North 398 458 13,000 -1,446 Descending Boston Center
Tue 02:14:05 AM 42.0203 -74.0414 19° North 341 392 11,600 -984 Descending Boston Center
Tue 02:15:06 AM 42.1042 -74.0072 17° North 307 353 11,000 -545 Descending Boston Center
Tue 02:16:06 AM 42.1794 -73.9725 19° North 254 292 10,500 -893 Descending Boston Center
Tue 02:17:07 AM 42.2467 -73.9378 21° North 253 291 9,200 -1,339 Descending Boston Center
Tue 02:18:07 AM 42.3158 -73.9086 17° North 257 296 7,800 -1,388 Descending Boston Center
Tue 02:19:08 AM 42.3850 -73.8792 17° North 257 296 6,400 -1,721 Descending Boston Center
Tue 02:20:09 AM 42.4500 -73.8497 18° North 251 289 4,300 -1,736 Descending Boston Center
Tue 02:21:09 AM 42.5150 -73.8175 20° North 253 291 2,900 -843 Descending Boston Center
Tue 02:22:10 AM 42.5714 -73.7989 14° North 206 237 2,600 -149 Descending Boston Center
Tue 02:23:10 AM 42.6256 -73.8003 359° North 168 193 2,600 -446 Level Boston Center
Tue 02:24:11 AM 42.6694 -73.8039 357° North 154 177 1,700 -836 Descending Boston Center
Tue 02:25:12 AM 42.7111 -73.8078 356° North 151 174 900 10,967 Descending Boston Center
Tue 02:26:13 AM 42.7822 -73.7808 16° North 188 216 24,000 22,721 Climbing Boston Center

Login

Don't have an account? Register now (free) for customized features, flight alerts, and more!